createdAt,value
2023-04-15T00:02:20.383Z,7.33
2023-04-15T00:04:50.720Z,7.32
2023-04-15T00:07:19.262Z,7.28
2023-04-15T00:09:47.774Z,7.27
2023-04-15T00:12:20.028Z,7.25
2023-04-15T00:14:48.673Z,7.25
2023-04-15T00:17:18.106Z,7.26
2023-04-15T00:19:54.864Z,7.27
2023-04-15T00:22:23.334Z,7.29
2023-04-15T00:24:53.016Z,7.29
2023-04-15T00:27:21.541Z,7.23
2023-04-15T00:29:50.262Z,7.22
2023-04-15T00:32:18.961Z,7.22
2023-04-15T00:34:47.510Z,7.16
2023-04-15T00:37:18.219Z,7.11
2023-04-15T00:39:47.070Z,7.05
2023-04-15T00:42:15.933Z,7.01
2023-04-15T00:44:44.497Z,6.98
2023-04-15T00:47:13.887Z,6.98
2023-04-15T00:49:45.318Z,7.01
2023-04-15T00:52:13.935Z,7.01
2023-04-15T00:54:42.518Z,7.02
2023-04-15T00:57:14.150Z,7.05
2023-04-15T00:59:43.292Z,7.10
2023-04-15T01:02:12.174Z,7.15
2023-04-15T01:04:41.541Z,7.17
2023-04-15T01:07:11.246Z,7.16
2023-04-15T01:09:41.007Z,7.12
2023-04-15T01:12:13.187Z,7.07
2023-04-15T01:14:42.202Z,7.04
2023-04-15T01:17:13.879Z,7.03
2023-04-15T01:19:42.771Z,7.02
2023-04-15T01:22:11.574Z,7.02
2023-04-15T01:24:41.507Z,7.01
2023-04-15T01:27:10.703Z,6.99
2023-04-15T01:29:39.864Z,6.98
2023-04-15T01:32:08.361Z,6.98
2023-04-15T01:34:37.190Z,7.00
2023-04-15T01:37:08.741Z,7.04
2023-04-15T01:39:39.722Z,7.09
2023-04-15T01:42:08.646Z,7.11
2023-04-15T01:44:37.631Z,7.13
2023-04-15T01:47:07.151Z,7.12
2023-04-15T01:49:36.390Z,7.11
2023-04-15T01:52:04.897Z,7.10
2023-04-15T01:54:33.521Z,7.09
2023-04-15T01:57:02.613Z,7.10
2023-04-15T01:59:32.389Z,7.10
2023-04-15T02:02:01.642Z,7.09
2023-04-15T02:04:30.372Z,7.08
2023-04-15T02:07:01.840Z,7.05
2023-04-15T02:09:31.173Z,7.01
2023-04-15T02:12:01.027Z,6.98
2023-04-15T02:14:32.502Z,6.97
2023-04-15T02:17:07.419Z,6.97
2023-04-15T02:19:36.148Z,6.96
2023-04-15T02:22:05.250Z,6.93
2023-04-15T02:24:33.921Z,6.88
2023-04-15T02:27:03.566Z,6.83
2023-04-15T02:29:33.270Z,6.78
2023-04-15T02:32:02.829Z,6.75
2023-04-15T02:34:31.902Z,6.74
2023-04-15T02:37:04.029Z,6.73
2023-04-15T02:39:32.980Z,6.70
2023-04-15T02:42:01.591Z,6.66
2023-04-15T02:44:31.417Z,6.60
2023-04-15T02:47:01.104Z,6.55
2023-04-15T02:49:31.159Z,6.52
2023-04-15T02:52:00.296Z,6.51
2023-04-15T02:54:29.118Z,6.48
2023-04-15T02:56:58.497Z,6.43
2023-04-15T02:59:29.896Z,6.39
2023-04-15T03:02:01.583Z,6.36
2023-04-15T03:04:31.066Z,6.35
2023-04-15T03:07:02.011Z,6.37
2023-04-15T03:09:30.623Z,6.40
2023-04-15T03:12:00.252Z,6.41
2023-04-15T03:14:28.824Z,6.38
2023-04-15T03:16:59.476Z,6.34
2023-04-15T03:19:28.018Z,6.31
2023-04-15T03:21:59.748Z,6.29
2023-04-15T03:24:29.950Z,6.31
2023-04-15T03:27:01.984Z,6.35
2023-04-15T03:29:33.031Z,6.36
2023-04-15T03:32:02.022Z,6.35
2023-04-15T03:34:33.627Z,6.34
2023-04-15T03:37:02.443Z,6.31
2023-04-15T03:39:35.564Z,6.30
2023-04-15T03:42:04.145Z,6.32
2023-04-15T03:44:38.046Z,6.35
2023-04-15T03:47:06.920Z,6.38
2023-04-15T03:49:36.313Z,6.40
2023-04-15T03:52:04.950Z,6.42
2023-04-15T03:54:34.013Z,6.44
2023-04-15T03:57:03.661Z,6.44
2023-04-15T03:59:32.432Z,6.44
2023-04-15T04:02:01.132Z,6.43
2023-04-15T04:04:29.915Z,6.42
2023-04-15T04:06:58.564Z,6.37
2023-04-15T04:09:28.054Z,6.29
2023-04-15T04:11:59.068Z,6.22
2023-04-15T04:14:30.010Z,6.13
2023-04-15T04:16:59.446Z,6.03
2023-04-15T04:19:30.192Z,5.96
2023-04-15T04:22:03.199Z,5.96
2023-04-15T04:24:34.315Z,5.95
2023-04-15T04:27:05.759Z,5.91
2023-04-15T04:29:34.438Z,5.88
2023-04-15T04:32:03.126Z,5.86
2023-04-15T04:34:32.795Z,5.87
2023-04-15T04:37:06.206Z,5.88
2023-04-15T04:39:34.974Z,5.89
2023-04-15T04:42:08.787Z,5.90
2023-04-15T04:44:40.508Z,5.93
2023-04-15T04:47:08.974Z,5.99
2023-04-15T04:49:42.253Z,6.10
2023-04-15T04:52:10.850Z,6.24
2023-04-15T04:54:42.544Z,6.34
2023-04-15T04:57:14.140Z,6.43
2023-04-15T04:59:43.054Z,6.50
2023-04-15T05:02:11.654Z,6.56
2023-04-15T05:04:42.338Z,6.61
2023-04-15T05:07:11.104Z,6.65
2023-04-15T05:09:39.647Z,6.68
2023-04-15T05:12:09.551Z,6.70
2023-04-15T05:14:38.078Z,6.70
2023-04-15T05:17:06.866Z,6.65
2023-04-15T05:19:35.574Z,6.60
2023-04-15T05:22:04.423Z,6.59
2023-04-15T05:24:32.942Z,6.63
2023-04-15T05:27:02.318Z,6.71
2023-04-15T05:29:30.856Z,6.73
2023-04-15T05:31:59.409Z,6.74
2023-04-15T05:34:27.894Z,6.77
2023-04-15T05:36:56.474Z,6.83
2023-04-15T05:39:25.084Z,6.92
2023-04-15T05:41:53.827Z,7.07
2023-04-15T05:44:24.579Z,7.26
2023-04-15T05:46:55.398Z,7.43
2023-04-15T05:49:28.506Z,7.52
2023-04-15T05:52:00.879Z,7.58
2023-04-15T05:54:34.197Z,7.66
2023-04-15T05:57:05.070Z,7.73
2023-04-15T05:59:33.620Z,7.83
2023-04-15T06:02:02.210Z,7.90
2023-04-15T06:04:31.252Z,7.88
2023-04-15T06:06:59.767Z,7.87
2023-04-15T06:09:29.223Z,7.90
2023-04-15T06:12:01.801Z,7.98
2023-04-15T06:14:30.430Z,8.01
2023-04-15T06:17:02.157Z,8.08
2023-04-15T06:19:30.812Z,8.08
2023-04-15T06:21:59.409Z,8.04
2023-04-15T06:24:28.122Z,8.03
2023-04-15T06:27:02.285Z,8.03
2023-04-15T06:29:35.446Z,8.10
2023-04-15T06:32:06.050Z,8.14
2023-04-15T06:34:34.629Z,8.28
2023-04-15T06:37:05.699Z,8.47
2023-04-15T06:39:37.977Z,8.64
2023-04-15T06:42:09.570Z,8.88
2023-04-15T06:44:38.796Z,9.08
2023-04-15T06:47:10.015Z,9.24
2023-04-15T06:49:40.584Z,9.36
2023-04-15T06:52:10.549Z,9.47
2023-04-15T06:54:42.281Z,9.63
2023-04-15T06:57:13.241Z,9.70
2023-04-15T06:59:43.190Z,9.65
2023-04-15T07:02:14.904Z,9.55
2023-04-15T07:04:43.607Z,9.53
2023-04-15T07:07:12.536Z,9.61
2023-04-15T07:09:41.192Z,9.65
2023-04-15T07:12:09.696Z,9.68
2023-04-15T07:14:40.588Z,9.67
2023-04-15T07:17:12.542Z,9.65
2023-04-15T07:19:41.162Z,9.70
2023-04-15T07:22:10.182Z,9.81
2023-04-15T07:24:38.763Z,9.98
2023-04-15T07:27:07.642Z,10.21
2023-04-15T07:29:38.547Z,10.39
2023-04-15T07:32:11.510Z,10.47
2023-04-15T07:34:43.311Z,10.60
2023-04-15T07:37:14.906Z,10.82
2023-04-15T07:39:46.292Z,11.05
2023-04-15T07:42:15.456Z,11.22
2023-04-15T07:44:44.003Z,11.30
2023-04-15T07:47:12.527Z,11.40
2023-04-15T07:49:43.603Z,11.51
2023-04-15T07:52:12.538Z,11.66
2023-04-15T07:54:40.946Z,11.79
2023-04-15T07:57:09.626Z,11.88
2023-04-15T07:59:38.052Z,11.90
2023-04-15T08:02:06.778Z,12.01
2023-04-15T08:04:35.386Z,12.13
2023-04-15T08:07:05.099Z,12.14
2023-04-15T08:09:33.505Z,12.12
2023-04-15T08:12:02.439Z,12.13
2023-04-15T08:14:31.214Z,12.15
2023-04-15T08:16:59.605Z,12.22
2023-04-15T08:19:31.200Z,12.35
2023-04-15T08:21:59.772Z,12.41
2023-04-15T08:24:28.123Z,12.49
2023-04-15T08:26:57.844Z,12.60
2023-04-15T08:29:26.308Z,12.72
2023-04-15T08:31:54.965Z,12.83
2023-04-15T08:34:24.647Z,12.91
2023-04-15T08:36:53.234Z,13.04
2023-04-15T08:39:21.696Z,13.22
2023-04-15T08:42:16.673Z,13.42
2023-04-15T08:44:49.084Z,13.73
2023-04-15T08:47:20.947Z,13.86
2023-04-15T08:49:54.041Z,13.89
2023-04-15T08:52:22.780Z,13.97
2023-04-15T08:54:53.179Z,14.00
2023-04-15T08:57:21.980Z,14.11
2023-04-15T08:59:50.813Z,14.31
2023-04-15T09:02:19.692Z,14.54
2023-04-15T09:04:48.441Z,14.78
2023-04-15T09:07:17.664Z,14.98
2023-04-15T09:09:46.318Z,15.16
2023-04-15T09:12:14.872Z,15.20
2023-04-15T09:14:48.401Z,15.07
2023-04-15T09:17:21.276Z,14.89
2023-04-15T09:19:49.808Z,14.75
2023-04-15T09:22:22.491Z,14.73
2023-04-15T09:24:50.858Z,14.79
2023-04-15T09:27:19.477Z,14.84
2023-04-15T09:29:50.858Z,15.07
2023-04-15T09:32:24.848Z,15.25
2023-04-15T09:34:55.639Z,15.18
2023-04-15T09:37:36.429Z,15.13
2023-04-15T09:40:05.644Z,15.18
2023-04-15T09:42:34.177Z,14.95
2023-04-15T09:45:11.793Z,14.89
2023-04-15T09:47:40.255Z,14.88
2023-04-15T09:50:12.180Z,14.89
2023-04-15T09:52:44.908Z,15.02
2023-04-15T09:55:14.266Z,15.25
2023-04-15T09:57:44.540Z,15.47
2023-04-15T10:00:14.252Z,15.71
2023-04-15T10:02:44.052Z,15.90
2023-04-15T10:05:15.880Z,16.12
2023-04-15T10:07:45.968Z,16.24
2023-04-15T10:10:15.193Z,16.26
2023-04-15T10:12:44.406Z,16.11
2023-04-15T10:15:19.631Z,15.94
2023-04-15T10:17:50.360Z,15.76
2023-04-15T10:20:23.489Z,15.53
2023-04-15T10:22:53.538Z,15.32
2023-04-15T10:25:22.893Z,15.21
2023-04-15T10:27:54.535Z,15.04
2023-04-15T10:30:23.559Z,14.99
2023-04-15T10:32:56.718Z,15.13
2023-04-15T10:35:30.849Z,15.30
2023-04-15T10:38:03.874Z,15.45
2023-04-15T10:40:37.881Z,15.53
2023-04-15T10:43:07.081Z,15.53
2023-04-15T10:45:37.840Z,15.53
2023-04-15T10:48:09.086Z,15.52
2023-04-15T10:50:37.939Z,15.56
2023-04-15T10:53:06.467Z,15.66
2023-04-15T10:55:35.571Z,15.72
2023-04-15T10:58:04.170Z,15.69
2023-04-15T11:00:35.391Z,15.72
2023-04-15T11:03:09.264Z,15.76
2023-04-15T11:05:54.119Z,15.75
2023-04-15T11:08:59.710Z,15.73
2023-04-15T11:12:07.802Z,15.82
2023-04-15T11:14:47.752Z,15.93
2023-04-15T11:17:29.067Z,15.96
2023-04-15T11:20:05.221Z,15.94
2023-04-15T11:22:33.766Z,16.09
2023-04-15T11:25:02.300Z,16.14
2023-04-15T11:27:33.518Z,16.10
2023-04-15T11:30:02.201Z,16.09
2023-04-15T11:32:30.771Z,16.21
2023-04-15T11:35:01.066Z,16.28
2023-04-15T11:37:30.659Z,16.19
2023-04-15T11:39:59.262Z,16.19
2023-04-15T11:42:33.708Z,16.28
2023-04-15T11:45:14.381Z,16.35
2023-04-15T11:47:43.761Z,16.41
2023-04-15T11:50:20.493Z,16.50
2023-04-15T11:52:57.311Z,16.59
2023-04-15T11:55:26.511Z,16.55
2023-04-15T11:58:34.623Z,16.52
2023-04-15T12:01:03.237Z,16.55
2023-04-15T12:03:43.495Z,16.54
2023-04-15T12:06:19.528Z,16.62
2023-04-15T12:08:52.901Z,16.75
2023-04-15T12:11:27.322Z,16.89
2023-04-15T12:14:19.848Z,16.90
2023-04-15T12:16:52.692Z,16.93
2023-04-15T12:19:29.589Z,16.96
2023-04-15T12:22:01.531Z,16.94
2023-04-15T12:24:34.671Z,16.98
2023-04-15T12:27:08.246Z,17.06
2023-04-15T12:29:38.855Z,17.09
2023-04-15T12:32:16.797Z,17.14
2023-04-15T12:34:51.711Z,17.22
2023-04-15T12:37:23.381Z,17.14
2023-04-15T12:39:52.541Z,16.97
2023-04-15T12:42:24.207Z,16.92
2023-04-15T12:44:52.657Z,16.87
2023-04-15T12:47:23.945Z,16.90
2023-04-15T12:49:52.467Z,16.93
2023-04-15T12:52:20.988Z,17.02
2023-04-15T12:54:49.519Z,17.16
2023-04-15T12:57:18.112Z,17.32
2023-04-15T12:59:46.724Z,17.43
2023-04-15T13:02:15.921Z,17.60
2023-04-15T13:04:44.512Z,17.78
2023-04-15T13:07:14.308Z,17.89
2023-04-15T13:09:45.893Z,17.89
2023-04-15T13:12:15.560Z,17.95
2023-04-15T13:14:47.341Z,17.99
2023-04-15T13:17:20.609Z,18.04
2023-04-15T13:19:49.151Z,18.08
2023-04-15T13:22:17.804Z,18.12
2023-04-15T13:24:46.446Z,18.04
2023-04-15T13:27:15.092Z,17.97
2023-04-15T13:29:43.764Z,17.81
2023-04-15T13:32:12.284Z,17.65
2023-04-15T13:34:41.009Z,17.35
2023-04-15T13:37:10.104Z,17.15
2023-04-15T13:39:38.597Z,17.07
2023-04-15T13:42:09.436Z,16.95
2023-04-15T13:44:38.645Z,16.98
2023-04-15T13:47:09.974Z,17.03
2023-04-15T13:49:40.662Z,17.07
2023-04-15T13:52:09.160Z,17.11
2023-04-15T13:54:38.228Z,17.19
2023-04-15T13:57:08.198Z,17.28
2023-04-15T13:59:38.828Z,17.32
2023-04-15T14:02:08.136Z,17.33
2023-04-15T14:04:36.793Z,17.36
2023-04-15T14:07:06.572Z,17.21
2023-04-15T14:09:35.680Z,16.97
2023-04-15T14:12:04.518Z,16.87
2023-04-15T14:14:33.161Z,16.70
2023-04-15T14:17:06.122Z,16.56
2023-04-15T14:19:35.553Z,16.40
2023-04-15T14:22:04.043Z,16.22
2023-04-15T14:24:32.630Z,16.11
2023-04-15T14:27:02.335Z,15.97
2023-04-15T14:29:33.310Z,15.84
2023-04-15T14:32:10.900Z,15.68
2023-04-15T14:34:44.429Z,15.60
2023-04-15T14:37:12.938Z,15.56
2023-04-15T14:39:41.521Z,15.50
2023-04-15T14:42:10.045Z,15.48
2023-04-15T14:44:38.649Z,15.43
2023-04-15T14:47:07.266Z,15.42
2023-04-15T14:49:36.004Z,15.43
2023-04-15T14:52:04.947Z,15.46
2023-04-15T14:54:33.476Z,15.50
2023-04-15T14:57:02.347Z,15.50
2023-04-15T14:59:32.961Z,15.49
2023-04-15T15:02:01.632Z,15.46
2023-04-15T15:04:30.786Z,15.46
2023-04-15T15:07:00.061Z,15.44
2023-04-15T15:09:29.296Z,15.40
2023-04-15T15:11:58.560Z,15.38
2023-04-15T15:14:28.368Z,15.33
2023-04-15T15:16:56.862Z,15.26
2023-04-15T15:19:25.571Z,15.13
2023-04-15T15:21:54.125Z,14.87
2023-04-15T15:24:25.482Z,14.50
2023-04-15T15:26:53.963Z,14.04
2023-04-15T15:29:25.734Z,13.61
2023-04-15T15:31:54.240Z,13.32
2023-04-15T15:34:26.097Z,13.07
2023-04-15T15:36:55.597Z,12.86
2023-04-15T15:39:24.406Z,12.68
2023-04-15T15:41:55.989Z,12.63
2023-04-15T15:44:24.585Z,12.68
2023-04-15T15:46:53.154Z,12.78
2023-04-15T15:49:26.140Z,12.93
2023-04-15T15:51:57.748Z,13.11
2023-04-15T15:54:29.426Z,13.20
2023-04-15T15:56:58.849Z,13.26
2023-04-15T15:59:27.500Z,13.31
2023-04-15T16:01:56.827Z,13.39
2023-04-15T16:04:27.153Z,13.41
2023-04-15T16:06:55.718Z,13.42
2023-04-15T16:09:26.215Z,13.46
2023-04-15T16:11:54.765Z,13.53
2023-04-15T16:14:26.451Z,13.64
2023-04-15T16:16:55.035Z,13.77
2023-04-15T16:19:23.694Z,13.81
2023-04-15T16:21:52.643Z,13.78
2023-04-15T16:24:26.090Z,13.78
2023-04-15T16:26:54.554Z,13.78
2023-04-15T16:29:26.451Z,13.81
2023-04-15T16:31:56.017Z,13.87
2023-04-15T16:34:24.672Z,13.92
2023-04-15T16:36:53.421Z,13.91
2023-04-15T16:39:24.435Z,13.82
2023-04-15T16:41:53.891Z,13.72
2023-04-15T16:44:27.170Z,13.66
2023-04-15T16:46:56.022Z,13.60
2023-04-15T16:49:35.180Z,13.51
2023-04-15T16:52:03.912Z,13.40
2023-04-15T16:54:35.044Z,13.29
2023-04-15T16:57:06.353Z,13.19
2023-04-15T16:59:34.859Z,13.09
2023-04-15T17:02:04.432Z,12.99
2023-04-15T17:04:35.411Z,12.90
2023-04-15T17:07:04.983Z,12.81
2023-04-15T17:09:33.565Z,12.72
2023-04-15T17:12:02.920Z,12.63
2023-04-15T17:14:35.142Z,12.55
2023-04-15T17:17:03.638Z,12.47
2023-04-15T17:19:34.787Z,12.39
2023-04-15T17:22:05.980Z,12.30
2023-04-15T17:24:36.641Z,12.21
2023-04-15T17:27:05.354Z,12.13
2023-04-15T17:29:33.924Z,12.07
2023-04-15T17:32:05.699Z,12.00
2023-04-15T17:34:49.729Z,11.93
2023-04-15T17:37:19.688Z,11.83
2023-04-15T17:39:48.221Z,11.75
2023-04-15T17:42:20.908Z,11.67
2023-04-15T17:44:54.992Z,11.59
2023-04-15T17:47:25.541Z,11.52
2023-04-15T17:49:54.229Z,11.47
2023-04-15T17:52:22.763Z,11.40
2023-04-15T17:54:51.241Z,11.35
2023-04-15T17:57:19.824Z,11.31
2023-04-15T17:59:48.636Z,11.30
2023-04-15T18:02:17.455Z,11.30
2023-04-15T18:04:51.542Z,11.30
2023-04-15T18:07:20.048Z,11.31
2023-04-15T18:09:50.771Z,11.29
2023-04-15T18:12:19.364Z,11.27
2023-04-15T18:14:50.207Z,11.24
2023-04-15T18:17:21.045Z,11.23
2023-04-15T18:19:49.536Z,11.21
2023-04-15T18:22:18.353Z,11.18
2023-04-15T18:24:49.949Z,11.15
2023-04-15T18:27:22.989Z,11.12
2023-04-15T18:29:51.526Z,11.09
2023-04-15T18:32:19.983Z,11.06
2023-04-15T18:34:50.885Z,11.02
2023-04-15T18:37:21.443Z,10.96
2023-04-15T18:39:52.322Z,10.90
2023-04-15T18:42:24.000Z,10.85
2023-04-15T18:44:53.526Z,10.81
2023-04-15T18:47:27.153Z,10.78
2023-04-15T18:49:55.840Z,10.79
2023-04-15T18:52:26.795Z,10.82
2023-04-15T18:54:55.271Z,10.83
2023-04-15T18:57:32.949Z,10.82
2023-04-15T19:00:03.936Z,10.80
2023-04-15T19:02:34.631Z,10.77
2023-04-15T19:05:04.731Z,10.72
2023-04-15T19:07:33.371Z,10.69
2023-04-15T19:10:03.427Z,10.68
2023-04-15T19:12:36.596Z,10.68
2023-04-15T19:15:05.380Z,10.68
2023-04-15T19:17:34.366Z,10.64
2023-04-15T19:20:13.546Z,10.59
2023-04-15T19:22:43.228Z,10.52
2023-04-15T19:25:11.786Z,10.47
2023-04-15T19:27:40.494Z,10.41
2023-04-15T19:30:09.328Z,10.33
2023-04-15T19:32:38.183Z,10.27
2023-04-15T19:35:08.728Z,10.20
2023-04-15T19:37:38.541Z,10.15
2023-04-15T19:40:08.684Z,10.11
2023-04-15T19:42:37.110Z,10.07
2023-04-15T19:45:09.551Z,10.06
2023-04-15T19:47:38.058Z,10.06
2023-04-15T19:50:11.449Z,10.08
2023-04-15T19:52:39.976Z,10.09
2023-04-15T19:55:09.003Z,10.09
2023-04-15T19:57:38.197Z,10.10
2023-04-15T20:00:07.421Z,10.10
2023-04-15T20:02:36.348Z,10.11
2023-04-15T20:05:09.839Z,10.10
2023-04-15T20:07:42.686Z,10.06
2023-04-15T20:10:14.373Z,10.01
2023-04-15T20:12:51.756Z,9.96
2023-04-15T20:15:23.976Z,9.91
2023-04-15T20:17:52.750Z,9.89
2023-04-15T20:20:26.068Z,9.88
2023-04-15T20:22:54.537Z,9.90
2023-04-15T20:25:30.091Z,9.92
2023-04-15T20:28:07.709Z,9.92
2023-04-15T20:30:37.533Z,9.92
2023-04-15T20:33:09.105Z,9.92
2023-04-15T20:35:37.779Z,9.90
2023-04-15T20:38:06.395Z,9.88
2023-04-15T20:40:37.334Z,9.86
2023-04-15T20:43:07.907Z,9.85
2023-04-15T20:45:39.380Z,9.81
2023-04-15T20:48:11.112Z,9.76
2023-04-15T20:50:43.464Z,9.74
2023-04-15T20:53:12.144Z,9.71
2023-04-15T20:55:41.399Z,9.69
2023-04-15T20:58:10.621Z,9.67
2023-04-15T21:00:40.104Z,9.64
2023-04-15T21:03:08.752Z,9.60
2023-04-15T21:05:42.943Z,9.53
2023-04-15T21:08:11.389Z,9.47
2023-04-15T21:10:40.377Z,9.43
2023-04-15T21:13:12.059Z,9.38
2023-04-15T21:15:42.856Z,9.34
2023-04-15T21:18:11.462Z,9.34
2023-04-15T21:20:42.497Z,9.35
2023-04-15T21:23:12.903Z,9.36
2023-04-15T21:25:41.732Z,9.35
2023-04-15T21:28:10.216Z,9.30
2023-04-15T21:30:43.312Z,9.24
2023-04-15T21:33:11.874Z,9.17
2023-04-15T21:35:40.556Z,9.10
2023-04-15T21:38:09.036Z,9.05
2023-04-15T21:40:40.790Z,9.00
2023-04-15T21:43:09.978Z,8.95
2023-04-15T21:45:43.740Z,8.89
2023-04-15T21:48:32.339Z,8.82
2023-04-15T21:51:01.780Z,8.75
2023-04-15T21:53:30.180Z,8.69
2023-04-15T21:55:58.626Z,8.66
2023-04-15T21:58:27.046Z,8.62
2023-04-15T22:01:00.058Z,8.56
2023-04-15T22:03:34.129Z,8.49
2023-04-15T22:06:04.558Z,8.43
2023-04-15T22:08:41.341Z,8.38
2023-04-15T22:11:26.717Z,8.34
2023-04-15T22:13:56.926Z,8.31
2023-04-15T22:16:26.755Z,8.30
2023-04-15T22:18:56.091Z,8.27
2023-04-15T22:21:24.566Z,8.25
2023-04-15T22:23:53.252Z,8.23
2023-04-15T22:26:41.843Z,8.18
2023-04-15T22:29:11.016Z,8.17
2023-04-15T22:31:39.568Z,8.18
2023-04-15T22:34:08.763Z,8.16
2023-04-15T22:36:37.233Z,8.10
2023-04-15T22:39:06.043Z,8.00
2023-04-15T22:41:34.965Z,7.91
2023-04-15T22:44:03.359Z,7.88
2023-04-15T22:46:31.945Z,7.86
2023-04-15T22:49:00.422Z,7.86
2023-04-15T22:51:28.899Z,7.84
2023-04-15T22:53:57.398Z,7.82
2023-04-15T22:56:26.029Z,7.77
2023-04-15T22:58:54.471Z,7.73
2023-04-15T23:01:23.118Z,7.70
2023-04-15T23:03:59.168Z,7.67
2023-04-15T23:06:34.096Z,7.65
2023-04-15T23:09:02.556Z,7.60
2023-04-15T23:11:31.009Z,7.51
2023-04-15T23:13:59.362Z,7.38
2023-04-15T23:16:27.808Z,7.28
2023-04-15T23:18:56.280Z,7.20
2023-04-15T23:21:26.114Z,7.14
2023-04-15T23:23:54.861Z,7.09
2023-04-15T23:26:24.132Z,7.04
2023-04-15T23:28:52.522Z,6.99
2023-04-15T23:31:25.719Z,6.95
2023-04-15T23:33:54.087Z,6.89
2023-04-15T23:36:22.561Z,6.85
2023-04-15T23:38:51.116Z,6.83
2023-04-15T23:41:19.552Z,6.83
2023-04-15T23:43:50.013Z,6.84
2023-04-15T23:46:18.405Z,6.79
2023-04-15T23:48:48.042Z,6.76
2023-04-15T23:51:16.791Z,6.73
2023-04-15T23:53:45.185Z,6.70
2023-04-15T23:56:13.619Z,6.68
2023-04-15T23:58:42.010Z,6.67
